sensor_id;sensor_type;location;lat;lon;timestamp;pressure;altitude;pressure_sealevel;temperature;humidity
22775;BME280;11554;51.106;3.684;2024-03-07T00:00:00;102500.11;;;4.37;100.0
22775;BME280;11554;51.106;3.684;2024-03-07T00:05:00;102500.20999999999;;;4.13;100.0
22775;BME280;11554;51.106;3.684;2024-03-07T00:10:00;102490.88999999998;;;3.82;100.0
22775;BME280;11554;51.106;3.684;2024-03-07T00:15:00;102491.14;;;3.67;100.0
22775;BME280;11554;51.106;3.684;2024-03-07T00:20:00;102499.54000000001;;;3.72;100.0
22775;BME280;11554;51.106;3.684;2024-03-07T00:25:00;102508.97;;;3.76;100.0
22775;BME280;11554;51.106;3.684;2024-03-07T00:30:00;102510.47000000002;;;4.12;100.0
22775;BME280;11554;51.106;3.684;2024-03-07T00:35:00;102507.62999999999;;;4.15;100.0
22775;BME280;11554;51.106;3.684;2024-03-07T00:40:00;102504.24;;;4.15;100.0
22775;BME280;11554;51.106;3.684;2024-03-07T00:45:00;102501.12;;;4.10;100.0
22775;BME280;11554;51.106;3.684;2024-03-07T00:50:00;102503.2;;;4.01;100.0
22775;BME280;11554;51.106;3.684;2024-03-07T00:55:00;102503.81;;;3.93;100.0
22775;BME280;11554;51.106;3.684;2024-03-07T01:00:00;102502.31000000001;;;3.91;100.0
22775;BME280;11554;51.106;3.684;2024-03-07T01:05:00;102500.72;;;3.90;100.0
22775;BME280;11554;51.106;3.684;2024-03-07T01:10:00;102492.81000000001;;;3.67;100.0
22775;BME280;11554;51.106;3.684;2024-03-07T01:15:00;102487.49;;;3.58;100.0
22775;BME280;11554;51.106;3.684;2024-03-07T01:20:00;102483.86;;;3.27;100.0
22775;BME280;11554;51.106;3.684;2024-03-07T01:25:00;102478.22000000002;;;3.08;100.0
22775;BME280;11554;51.106;3.684;2024-03-07T01:30:00;102476.38999999998;;;3.02;100.0
22775;BME280;11554;51.106;3.684;2024-03-07T01:35:00;102473.28;;;3.04;100.0
22775;BME280;11554;51.106;3.684;2024-03-07T01:40:00;102468.82;;;2.88;100.0
22775;BME280;11554;51.106;3.684;2024-03-07T01:45:00;102462.57;;;2.81;100.0
22775;BME280;11554;51.106;3.684;2024-03-07T01:50:00;102465.54000000001;;;2.89;100.0
22775;BME280;11554;51.106;3.684;2024-03-07T01:55:00;102462.81;;;2.75;100.0
22775;BME280;11554;51.106;3.684;2024-03-07T02:00:00;102461.70999999999;;;2.80;100.0
22775;BME280;11554;51.106;3.684;2024-03-07T02:05:00;102463.1;;;2.71;100.0
22775;BME280;11554;51.106;3.684;2024-03-07T02:10:00;102459.59;;;2.55;100.0
22775;BME280;11554;51.106;3.684;2024-03-07T02:15:00;102450.56999999999;;;2.37;100.0
22775;BME280;11554;51.106;3.684;2024-03-07T02:20:00;102450.2;;;2.49;100.0
22775;BME280;11554;51.106;3.684;2024-03-07T02:25:00;102447.93999999999;;;2.47;100.0
22775;BME280;11554;51.106;3.684;2024-03-07T02:30:00;102444.93;;;2.60;100.0
22775;BME280;11554;51.106;3.684;2024-03-07T02:35:00;102447.48999999999;;;2.70;100.0
22775;BME280;11554;51.106;3.684;2024-03-07T02:40:00;102444.29000000001;;;2.87;100.0
22775;BME280;11554;51.106;3.684;2024-03-07T02:45:00;102443.96999999999;;;2.96;100.0
22775;BME280;11554;51.106;3.684;2024-03-07T02:50:00;102440.06;;;2.85;100.0
22775;BME280;11554;51.106;3.684;2024-03-07T02:55:00;102438.1;;;2.77;100.0
22775;BME280;11554;51.106;3.684;2024-03-07T03:00:00;102437.01000000001;;;2.87;100.0
22775;BME280;11554;51.106;3.684;2024-03-07T03:05:00;102434.78;;;2.76;100.0
22775;BME280;11554;51.106;3.684;2024-03-07T03:10:00;102429.04000000001;;;2.80;100.0
22775;BME280;11554;51.106;3.684;2024-03-07T03:15:00;102422.46;;;2.76;100.0
22775;BME280;11554;51.106;3.684;2024-03-07T03:20:00;102423.93;;;2.62;100.0
22775;BME280;11554;51.106;3.684;2024-03-07T03:25:00;102423.85999999999;;;2.58;100.0
22775;BME280;11554;51.106;3.684;2024-03-07T03:30:00;102423.36;;;2.74;100.0
22775;BME280;11554;51.106;3.684;2024-03-07T03:35:00;102418.74;;;2.79;100.0
22775;BME280;11554;51.106;3.684;2024-03-07T03:40:00;102422.61000000002;;;2.77;100.0
22775;BME280;11554;51.106;3.684;2024-03-07T03:45:00;102416.56;;;2.68;100.0
22775;BME280;11554;51.106;3.684;2024-03-07T03:50:00;102417.04;;;2.78;100.0
22775;BME280;11554;51.106;3.684;2024-03-07T03:55:00;102412.1;;;2.85;100.0
22775;BME280;11554;51.106;3.684;2024-03-07T04:00:00;102416.17000000001;;;2.92;100.0
22775;BME280;11554;51.106;3.684;2024-03-07T04:05:00;102410.58;;;2.95;100.0
22775;BME280;11554;51.106;3.684;2024-03-07T04:10:00;102409.69;;;3.06;100.0
22775;BME280;11554;51.106;3.684;2024-03-07T04:15:00;102410.67;;;3.04;100.0
22775;BME280;11554;51.106;3.684;2024-03-07T04:20:00;102407.7;;;3.21;100.0
22775;BME280;11554;51.106;3.684;2024-03-07T04:25:00;102403.12;;;3.41;100.0
22775;BME280;11554;51.106;3.684;2024-03-07T04:30:00;102402.59000000001;;;3.55;100.0
22775;BME280;11554;51.106;3.684;2024-03-07T04:35:00;102401.51000000001;;;3.63;100.0
22775;BME280;11554;51.106;3.684;2024-03-07T04:40:01;102405.26999999999;;;3.51;100.0
22775;BME280;11554;51.106;3.684;2024-03-07T04:45:00;102404.92;;;3.43;100.0
22775;BME280;11554;51.106;3.684;2024-03-07T04:50:00;102401.79000000001;;;3.32;100.0
22775;BME280;11554;51.106;3.684;2024-03-07T04:55:00;102402.0;;;3.23;100.0
22775;BME280;11554;51.106;3.684;2024-03-07T05:00:00;102397.08;;;3.19;100.0
22775;BME280;11554;51.106;3.684;2024-03-07T05:05:00;102396.14;;;3.04;100.0
22775;BME280;11554;51.106;3.684;2024-03-07T05:10:00;102399.94;;;2.93;100.0
22775;BME280;11554;51.106;3.684;2024-03-07T05:15:00;102397.54000000001;;;2.84;100.0
22775;BME280;11554;51.106;3.684;2024-03-07T05:20:01;102399.69;;;2.71;100.0
22775;BME280;11554;51.106;3.684;2024-03-07T05:25:00;102398.49;;;2.75;100.0
22775;BME280;11554;51.106;3.684;2024-03-07T05:30:00;102394.41;;;2.73;100.0
22775;BME280;11554;51.106;3.684;2024-03-07T05:35:00;102390.83;;;2.71;100.0
22775;BME280;11554;51.106;3.684;2024-03-07T05:40:00;102391.74;;;2.69;100.0
22775;BME280;11554;51.106;3.684;2024-03-07T05:45:00;102392.66;;;2.74;100.0
22775;BME280;11554;51.106;3.684;2024-03-07T05:50:00;102395.25;;;2.79;100.0
22775;BME280;11554;51.106;3.684;2024-03-07T05:55:00;102389.73;;;2.72;100.0
22775;BME280;11554;51.106;3.684;2024-03-07T06:00:00;102389.5;;;2.73;100.0
22775;BME280;11554;51.106;3.684;2024-03-07T06:05:00;102389.9;;;2.64;100.0
22775;BME280;11554;51.106;3.684;2024-03-07T06:10:00;102392.48999999999;;;2.69;100.0
22775;BME280;11554;51.106;3.684;2024-03-07T06:15:01;102389.84;;;2.77;100.0
22775;BME280;11554;51.106;3.684;2024-03-07T06:20:00;102387.47;;;2.86;100.0
22775;BME280;11554;51.106;3.684;2024-03-07T06:25:00;102390.12;;;2.84;100.0
22775;BME280;11554;51.106;3.684;2024-03-07T06:35:00;102399.97;;;2.79;100.0
22775;BME280;11554;51.106;3.684;2024-03-07T06:40:00;102399.32;;;2.74;100.0
22775;BME280;11554;51.106;3.684;2024-03-07T06:45:00;102397.52;;;2.78;100.0
22775;BME280;11554;51.106;3.684;2024-03-07T06:50:00;102401.07;;;2.82;100.0
22775;BME280;11554;51.106;3.684;2024-03-07T06:55:00;102398.67;;;3.16;100.0
22775;BME280;11554;51.106;3.684;2024-03-07T07:00:00;102402.72;;;3.37;100.0
22775;BME280;11554;51.106;3.684;2024-03-07T07:05:00;102398.15999999999;;;3.46;100.0
22775;BME280;11554;51.106;3.684;2024-03-07T07:10:00;102401.27;;;3.52;100.0
22775;BME280;11554;51.106;3.684;2024-03-07T07:15:00;102400.51000000001;;;3.62;100.0
22775;BME280;11554;51.106;3.684;2024-03-07T07:20:00;102403.73999999999;;;3.70;100.0
22775;BME280;11554;51.106;3.684;2024-03-07T07:25:00;102396.55;;;3.74;100.0
22775;BME280;11554;51.106;3.684;2024-03-07T07:30:00;102382.81;;;3.83;100.0
22775;BME280;11554;51.106;3.684;2024-03-07T07:35:00;102384.78;;;3.94;100.0
22775;BME280;11554;51.106;3.684;2024-03-07T07:40:00;102383.68000000001;;;4.05;100.0
22775;BME280;11554;51.106;3.684;2024-03-07T07:45:00;102375.89;;;4.15;100.0
22775;BME280;11554;51.106;3.684;2024-03-07T07:50:00;102371.69;;;4.32;100.0
22775;BME280;11554;51.106;3.684;2024-03-07T07:55:00;102374.13;;;4.44;100.0
22775;BME280;11554;51.106;3.684;2024-03-07T08:00:00;102375.72;;;4.60;100.0
22775;BME280;11554;51.106;3.684;2024-03-07T08:05:00;102375.27;;;4.79;100.0
22775;BME280;11554;51.106;3.684;2024-03-07T08:10:00;102382.69;;;4.69;100.0
22775;BME280;11554;51.106;3.684;2024-03-07T08:15:00;102373.15999999999;;;4.74;100.0
22775;BME280;11554;51.106;3.684;2024-03-07T08:20:00;102368.46;;;4.76;100.0
22775;BME280;11554;51.106;3.684;2024-03-07T08:25:00;102365.62;;;4.57;100.0
22775;BME280;11554;51.106;3.684;2024-03-07T08:30:00;102355.67;;;4.30;100.0
22775;BME280;11554;51.106;3.684;2024-03-07T08:35:00;102355.33;;;4.33;100.0
22775;BME280;11554;51.106;3.684;2024-03-07T08:40:00;102348.36;;;4.37;100.0
22775;BME280;11554;51.106;3.684;2024-03-07T08:45:00;102349.06999999999;;;4.48;100.0
22775;BME280;11554;51.106;3.684;2024-03-07T08:50:00;102342.95;;;4.52;100.0
22775;BME280;11554;51.106;3.684;2024-03-07T08:55:00;102343.18;;;4.55;100.0
22775;BME280;11554;51.106;3.684;2024-03-07T09:00:00;102349.83;;;4.62;100.0
22775;BME280;11554;51.106;3.684;2024-03-07T09:05:00;102340.84;;;4.83;100.0
22775;BME280;11554;51.106;3.684;2024-03-07T09:10:00;102334.34999999999;;;5.08;100.0
22775;BME280;11554;51.106;3.684;2024-03-07T09:15:00;102328.5;;;5.38;100.0
22775;BME280;11554;51.106;3.684;2024-03-07T09:20:00;102326.72;;;5.94;100.0
22775;BME280;11554;51.106;3.684;2024-03-07T09:25:00;102316.28;;;6.14;100.0
22775;BME280;11554;51.106;3.684;2024-03-07T09:30:00;102308.34;;;6.14;100.0
22775;BME280;11554;51.106;3.684;2024-03-07T09:35:00;102295.84;;;6.16;100.0
22775;BME280;11554;51.106;3.684;2024-03-07T09:40:00;102286.49;;;6.30;100.0
22775;BME280;11554;51.106;3.684;2024-03-07T09:45:00;102277.92;;;6.58;100.0
22775;BME280;11554;51.106;3.684;2024-03-07T09:50:00;102261.3;;;6.85;100.0
22775;BME280;11554;51.106;3.684;2024-03-07T09:55:00;102248.22;;;7.03;100.0
22775;BME280;11554;51.106;3.684;2024-03-07T10:00:00;102243.25;;;7.21;100.0
22775;BME280;11554;51.106;3.684;2024-03-07T10:05:00;102230.78;;;7.37;100.0
22775;BME280;11554;51.106;3.684;2024-03-07T10:10:00;102223.69;;;7.77;100.0
22775;BME280;11554;51.106;3.684;2024-03-07T10:15:02;102213.62000000001;;;8.05;100.0
22775;BME280;11554;51.106;3.684;2024-03-07T10:20:00;102204.22;;;8.27;100.0
22775;BME280;11554;51.106;3.684;2024-03-07T10:25:00;102198.78;;;8.61;100.0
22775;BME280;11554;51.106;3.684;2024-03-07T10:30:00;102187.23;;;8.82;100.0
22775;BME280;11554;51.106;3.684;2024-03-07T10:35:00;102190.05;;;8.96;100.0
22775;BME280;11554;51.106;3.684;2024-03-07T10:40:00;102185.6;;;9.31;100.0
22775;BME280;11554;51.106;3.684;2024-03-07T10:45:00;102177.57;;;9.23;100.0
22775;BME280;11554;51.106;3.684;2024-03-07T10:50:03;102176.95999999999;;;9.47;100.0
22775;BME280;11554;51.106;3.684;2024-03-07T10:55:03;102171.2;;;9.57;100.0
22775;BME280;11554;51.106;3.684;2024-03-07T11:00:00;102166.6;;;9.79;100.0
22775;BME280;11554;51.106;3.684;2024-03-07T11:05:00;102165.71;;;10.30;100.0
22775;BME280;11554;51.106;3.684;2024-03-07T11:10:00;102169.34999999999;;;10.47;100.0
22775;BME280;11554;51.106;3.684;2024-03-07T11:15:00;102149.83;;;10.58;100.0
22775;BME280;11554;51.106;3.684;2024-03-07T11:25:00;102132.28;;;10.89;100.0
22775;BME280;11554;51.106;3.684;2024-03-07T11:30:04;102130.55;;;10.80;100.0
22775;BME280;11554;51.106;3.684;2024-03-07T11:35:03;102114.75;;;11.19;100.0
22775;BME280;11554;51.106;3.684;2024-03-07T11:40:00;102114.12;;;11.12;100.0
22775;BME280;11554;51.106;3.684;2024-03-07T11:45:00;102112.81;;;10.93;100.0
22775;BME280;11554;51.106;3.684;2024-03-07T11:50:00;102106.19;;;10.62;100.0
22775;BME280;11554;51.106;3.684;2024-03-07T11:55:00;102093.34;;;11.28;100.0
22775;BME280;11554;51.106;3.684;2024-03-07T12:00:00;102087.62000000001;;;11.09;100.0
22775;BME280;11554;51.106;3.684;2024-03-07T12:05:00;102080.35;;;11.35;100.0
22775;BME280;11554;51.106;3.684;2024-03-07T12:10:00;102075.09999999999;;;11.41;100.0
22775;BME280;11554;51.106;3.684;2024-03-07T12:15:00;102065.62;;;11.35;100.0
22775;BME280;11554;51.106;3.684;2024-03-07T12:20:00;102061.13;;;11.19;100.0
22775;BME280;11554;51.106;3.684;2024-03-07T12:25:00;102053.85;;;11.50;100.0
22775;BME280;11554;51.106;3.684;2024-03-07T12:30:00;102048.77;;;11.89;100.0
22775;BME280;11554;51.106;3.684;2024-03-07T12:35:00;102037.73999999999;;;12.09;100.0
22775;BME280;11554;51.106;3.684;2024-03-07T12:40:00;102031.89;;;11.67;100.0
22775;BME280;11554;51.106;3.684;2024-03-07T12:45:00;102022.1;;;11.79;100.0
22775;BME280;11554;51.106;3.684;2024-03-07T12:50:00;102011.69;;;12.17;100.0
22775;BME280;11554;51.106;3.684;2024-03-07T12:55:00;102001.14;;;12.42;100.0
22775;BME280;11554;51.106;3.684;2024-03-07T13:00:00;101998.72;;;12.29;100.0
22775;BME280;11554;51.106;3.684;2024-03-07T13:05:00;101994.26;;;11.91;100.0
22775;BME280;11554;51.106;3.684;2024-03-07T13:10:00;101989.70000000001;;;12.12;100.0
22775;BME280;11554;51.106;3.684;2024-03-07T13:15:00;101984.95;;;12.31;100.0
22775;BME280;11554;51.106;3.684;2024-03-07T13:20:00;101980.76999999999;;;11.69;100.0
22775;BME280;11554;51.106;3.684;2024-03-07T13:25:00;101977.42;;;12.11;100.0
22775;BME280;11554;51.106;3.684;2024-03-07T13:30:00;101968.64;;;12.29;100.0
22775;BME280;11554;51.106;3.684;2024-03-07T13:35:00;101957.08;;;11.94;100.0
22775;BME280;11554;51.106;3.684;2024-03-07T13:40:00;101958.53;;;12.03;100.0
22775;BME280;11554;51.106;3.684;2024-03-07T13:45:00;101952.69;;;11.90;100.0
22775;BME280;11554;51.106;3.684;2024-03-07T13:50:00;101942.90999999999;;;12.07;100.0
22775;BME280;11554;51.106;3.684;2024-03-07T13:55:00;101941.47;;;12.10;100.0
22775;BME280;11554;51.106;3.684;2024-03-07T14:00:02;101936.25;;;11.79;100.0
22775;BME280;11554;51.106;3.684;2024-03-07T14:05:11;101925.92;;;11.48;100.0
22775;BME280;11554;51.106;3.684;2024-03-07T14:10:06;101923.5;;;10.97;100.0
22775;BME280;11554;51.106;3.684;2024-03-07T14:20:13;101909.52;;;11.42;100.0
22775;BME280;11554;51.106;3.684;2024-03-07T14:25:06;101897.38;;;11.52;100.0
22775;BME280;11554;51.106;3.684;2024-03-07T14:30:08;101896.62;;;11.39;100.0
22775;BME280;11554;51.106;3.684;2024-03-07T14:35:01;101896.59;;;11.13;100.0
22775;BME280;11554;51.106;3.684;2024-03-07T14:40:05;101886.95;;;11.44;100.0
22775;BME280;11554;51.106;3.684;2024-03-07T14:45:00;101877.25;;;11.34;100.0
22775;BME280;11554;51.106;3.684;2024-03-07T14:50:00;101874.89;;;11.18;100.0
22775;BME280;11554;51.106;3.684;2024-03-07T14:55:00;101875.34000000001;;;11.01;100.0
22775;BME280;11554;51.106;3.684;2024-03-07T15:00:00;101869.67;;;10.87;100.0
22775;BME280;11554;51.106;3.684;2024-03-07T15:05:00;101855.02;;;10.98;100.0
22775;BME280;11554;51.106;3.684;2024-03-07T15:10:00;101859.47;;;10.79;100.0
22775;BME280;11554;51.106;3.684;2024-03-07T15:15:00;101861.28;;;10.82;100.0
22775;BME280;11554;51.106;3.684;2024-03-07T15:20:00;101849.40000000001;;;10.70;100.0
22775;BME280;11554;51.106;3.684;2024-03-07T15:25:00;101835.11;;;10.51;100.0
22775;BME280;11554;51.106;3.684;2024-03-07T15:30:00;101821.84;;;10.50;100.0
22775;BME280;11554;51.106;3.684;2024-03-07T15:35:00;101825.09;;;10.54;100.0
22775;BME280;11554;51.106;3.684;2024-03-07T15:40:04;101811.8;;;10.35;100.0
22775;BME280;11554;51.106;3.684;2024-03-07T15:45:00;101795.11;;;10.32;100.0
22775;BME280;11554;51.106;3.684;2024-03-07T15:50:00;101797.39;;;10.38;100.0
22775;BME280;11554;51.106;3.684;2024-03-07T15:55:00;101783.95000000001;;;10.04;100.0
22775;BME280;11554;51.106;3.684;2024-03-07T16:00:00;101782.03;;;9.93;100.0
22775;BME280;11554;51.106;3.684;2024-03-07T16:05:00;101775.11;;;9.78;100.0
22775;BME280;11554;51.106;3.684;2024-03-07T16:10:00;101779.3;;;9.74;100.0
22775;BME280;11554;51.106;3.684;2024-03-07T16:15:00;101772.25;;;9.65;100.0
22775;BME280;11554;51.106;3.684;2024-03-07T16:20:00;101772.79999999999;;;9.52;100.0
22775;BME280;11554;51.106;3.684;2024-03-07T16:25:00;101760.38;;;9.33;100.0
22775;BME280;11554;51.106;3.684;2024-03-07T16:30:00;101752.26;;;9.21;100.0
22775;BME280;11554;51.106;3.684;2024-03-07T16:35:00;101749.86;;;9.14;100.0
22775;BME280;11554;51.106;3.684;2024-03-07T16:40:00;101742.58;;;9.06;100.0
22775;BME280;11554;51.106;3.684;2024-03-07T16:45:00;101735.74;;;8.98;100.0
22775;BME280;11554;51.106;3.684;2024-03-07T16:50:00;101736.86;;;8.80;100.0
22775;BME280;11554;51.106;3.684;2024-03-07T16:55:00;101740.44;;;8.67;100.0
22775;BME280;11554;51.106;3.684;2024-03-07T17:00:00;101741.18999999999;;;8.55;100.0
22775;BME280;11554;51.106;3.684;2024-03-07T17:05:00;101746.48;;;8.41;100.0
22775;BME280;11554;51.106;3.684;2024-03-07T17:10:00;101746.96;;;8.24;100.0
22775;BME280;11554;51.106;3.684;2024-03-07T17:15:00;101748.35;;;8.12;100.0
22775;BME280;11554;51.106;3.684;2024-03-07T17:20:00;101744.5;;;8.03;100.0
22775;BME280;11554;51.106;3.684;2024-03-07T17:25:00;101741.25;;;7.84;100.0
22775;BME280;11554;51.106;3.684;2024-03-07T17:30:00;101744.73000000001;;;7.74;100.0
22775;BME280;11554;51.106;3.684;2024-03-07T17:35:00;101744.41;;;7.60;100.0
22775;BME280;11554;51.106;3.684;2024-03-07T17:40:00;101741.61;;;7.51;100.0
22775;BME280;11554;51.106;3.684;2024-03-07T17:45:00;101741.2;;;7.42;100.0
22775;BME280;11554;51.106;3.684;2024-03-07T17:50:00;101743.06;;;7.26;100.0
22775;BME280;11554;51.106;3.684;2024-03-07T17:55:00;101741.56;;;7.07;100.0
22775;BME280;11554;51.106;3.684;2024-03-07T18:00:00;101740.77;;;6.86;100.0
22775;BME280;11554;51.106;3.684;2024-03-07T18:05:00;101742.56;;;6.79;100.0
22775;BME280;11554;51.106;3.684;2024-03-07T18:10:01;101735.03;;;6.88;100.0
22775;BME280;11554;51.106;3.684;2024-03-07T18:15:00;101733.65;;;6.84;100.0
22775;BME280;11554;51.106;3.684;2024-03-07T18:20:00;101733.03;;;6.85;100.0
22775;BME280;11554;51.106;3.684;2024-03-07T18:25:00;101739.75;;;6.82;100.0
22775;BME280;11554;51.106;3.684;2024-03-07T18:30:00;101742.36;;;6.75;100.0
22775;BME280;11554;51.106;3.684;2024-03-07T18:35:00;101737.85;;;6.79;100.0
22775;BME280;11554;51.106;3.684;2024-03-07T18:40:00;101742.0;;;6.80;100.0
22775;BME280;11554;51.106;3.684;2024-03-07T18:45:00;101742.43000000001;;;6.77;100.0
22775;BME280;11554;51.106;3.684;2024-03-07T18:50:00;101745.26;;;6.68;100.0
22775;BME280;11554;51.106;3.684;2024-03-07T18:55:00;101746.72;;;6.70;100.0
22775;BME280;11554;51.106;3.684;2024-03-07T19:00:00;101744.81;;;6.69;100.0
22775;BME280;11554;51.106;3.684;2024-03-07T19:05:00;101745.09000000001;;;6.53;100.0
22775;BME280;11554;51.106;3.684;2024-03-07T19:10:00;101737.67;;;6.66;100.0
22775;BME280;11554;51.106;3.684;2024-03-07T19:15:00;101729.45999999999;;;6.64;100.0
22775;BME280;11554;51.106;3.684;2024-03-07T19:20:00;101732.42;;;6.63;100.0
22775;BME280;11554;51.106;3.684;2024-03-07T19:25:00;101721.34;;;6.57;100.0
22775;BME280;11554;51.106;3.684;2024-03-07T19:30:00;101721.48;;;6.48;100.0
22775;BME280;11554;51.106;3.684;2024-03-07T19:35:00;101723.19;;;6.34;100.0
22775;BME280;11554;51.106;3.684;2024-03-07T19:40:00;101722.41;;;6.29;100.0
22775;BME280;11554;51.106;3.684;2024-03-07T19:45:00;101717.94;;;6.16;100.0
22775;BME280;11554;51.106;3.684;2024-03-07T19:50:00;101723.90000000001;;;6.12;100.0
22775;BME280;11554;51.106;3.684;2024-03-07T19:55:00;101716.74;;;6.02;100.0
22775;BME280;11554;51.106;3.684;2024-03-07T20:00:00;101710.51999999999;;;5.96;100.0
22775;BME280;11554;51.106;3.684;2024-03-07T20:05:00;101709.81;;;5.94;100.0
22775;BME280;11554;51.106;3.684;2024-03-07T20:10:00;101708.51;;;5.88;100.0
22775;BME280;11554;51.106;3.684;2024-03-07T20:15:00;101711.41;;;5.91;100.0
22775;BME280;11554;51.106;3.684;2024-03-07T20:20:00;101706.39;;;5.87;100.0
22775;BME280;11554;51.106;3.684;2024-03-07T20:25:00;101697.6;;;5.83;100.0
22775;BME280;11554;51.106;3.684;2024-03-07T20:30:00;101696.45000000001;;;5.80;100.0
22775;BME280;11554;51.106;3.684;2024-03-07T20:35:00;101700.05;;;5.69;100.0
22775;BME280;11554;51.106;3.684;2024-03-07T20:40:01;101694.19;;;5.67;100.0
22775;BME280;11554;51.106;3.684;2024-03-07T20:45:00;101698.08;;;5.66;100.0
22775;BME280;11554;51.106;3.684;2024-03-07T20:50:00;101699.51999999999;;;5.60;100.0
22775;BME280;11554;51.106;3.684;2024-03-07T20:55:00;101695.2;;;5.57;100.0
22775;BME280;11554;51.106;3.684;2024-03-07T21:00:00;101691.92;;;5.50;100.0
22775;BME280;11554;51.106;3.684;2024-03-07T21:05:00;101691.25;;;5.54;100.0
22775;BME280;11554;51.106;3.684;2024-03-07T21:10:00;101685.6;;;5.52;100.0
22775;BME280;11554;51.106;3.684;2024-03-07T21:15:00;101686.63;;;5.44;100.0
22775;BME280;11554;51.106;3.684;2024-03-07T21:20:00;101689.98;;;5.47;100.0
22775;BME280;11554;51.106;3.684;2024-03-07T21:25:00;101690.99;;;5.38;100.0
22775;BME280;11554;51.106;3.684;2024-03-07T21:30:00;101691.63;;;5.32;100.0
22775;BME280;11554;51.106;3.684;2024-03-07T21:35:00;101689.43000000001;;;5.36;100.0
22775;BME280;11554;51.106;3.684;2024-03-07T21:40:00;101686.06;;;5.29;100.0
22775;BME280;11554;51.106;3.684;2024-03-07T21:45:00;101684.47;;;5.17;100.0
22775;BME280;11554;51.106;3.684;2024-03-07T21:50:00;101678.51000000001;;;5.17;100.0
22775;BME280;11554;51.106;3.684;2024-03-07T21:55:00;101676.01;;;5.16;100.0
22775;BME280;11554;51.106;3.684;2024-03-07T22:00:00;101674.61;;;5.03;100.0
22775;BME280;11554;51.106;3.684;2024-03-07T22:05:00;101670.28;;;4.97;100.0
22775;BME280;11554;51.106;3.684;2024-03-07T22:10:00;101663.47;;;4.86;100.0
22775;BME280;11554;51.106;3.684;2024-03-07T22:15:00;101659.41;;;4.75;100.0
22775;BME280;11554;51.106;3.684;2024-03-07T22:20:00;101654.49;;;4.72;100.0
22775;BME280;11554;51.106;3.684;2024-03-07T22:25:00;101647.75;;;4.63;100.0
22775;BME280;11554;51.106;3.684;2024-03-07T22:30:00;101646.48;;;4.57;100.0
22775;BME280;11554;51.106;3.684;2024-03-07T22:35:00;101638.64;;;4.65;100.0
22775;BME280;11554;51.106;3.684;2024-03-07T22:40:00;101632.11;;;4.60;100.0
22775;BME280;11554;51.106;3.684;2024-03-07T22:45:00;101627.53;;;4.51;100.0
22775;BME280;11554;51.106;3.684;2024-03-07T22:50:00;101624.86;;;4.43;100.0
22775;BME280;11554;51.106;3.684;2024-03-07T22:55:00;101619.51000000001;;;4.40;100.0
22775;BME280;11554;51.106;3.684;2024-03-07T23:00:00;101612.67;;;4.38;100.0
22775;BME280;11554;51.106;3.684;2024-03-07T23:05:00;101608.62;;;4.32;100.0
22775;BME280;11554;51.106;3.684;2024-03-07T23:10:00;101604.22;;;4.36;100.0
22775;BME280;11554;51.106;3.684;2024-03-07T23:15:00;101599.65;;;4.38;100.0
22775;BME280;11554;51.106;3.684;2024-03-07T23:20:00;101592.31;;;4.24;100.0
22775;BME280;11554;51.106;3.684;2024-03-07T23:25:00;101589.42;;;4.21;100.0
22775;BME280;11554;51.106;3.684;2024-03-07T23:30:00;101583.04000000001;;;4.11;100.0
22775;BME280;11554;51.106;3.684;2024-03-07T23:35:00;101572.77;;;4.06;100.0
22775;BME280;11554;51.106;3.684;2024-03-07T23:40:00;101568.95;;;4.03;100.0
22775;BME280;11554;51.106;3.684;2024-03-07T23:45:00;101565.69;;;4.02;100.0
22775;BME280;11554;51.106;3.684;2024-03-07T23:50:00;101563.05;;;4.00;100.0
22775;BME280;11554;51.106;3.684;2024-03-07T23:55:00;101560.14;;;3.93;100.0
